sensor_id;sensor_type;location;lat;lon;timestamp;P1;durP1;ratioP1;P2;durP2;ratioP2
41572;SDS011;27286;47.870;19.006;2024-03-06T00:01:41;22.08;;;10.02;;
41572;SDS011;27286;47.870;19.006;2024-03-06T00:04:07;18.58;;;9.90;;
41572;SDS011;27286;47.870;19.006;2024-03-06T00:06:32;16.50;;;10.63;;
41572;SDS011;27286;47.870;19.006;2024-03-06T00:08:59;15.63;;;10.50;;
41572;SDS011;27286;47.870;19.006;2024-03-06T00:11:27;37.00;;;18.35;;
41572;SDS011;27286;47.870;19.006;2024-03-06T00:13:52;33.13;;;16.98;;
41572;SDS011;27286;47.870;19.006;2024-03-06T00:16:18;29.83;;;15.35;;
41572;SDS011;27286;47.870;19.006;2024-03-06T00:18:43;23.65;;;14.27;;
41572;SDS011;27286;47.870;19.006;2024-03-06T00:21:08;22.60;;;13.60;;
41572;SDS011;27286;47.870;19.006;2024-03-06T00:23:34;20.88;;;12.05;;
41572;SDS011;27286;47.870;19.006;2024-03-06T00:26:02;19.27;;;11.27;;
41572;SDS011;27286;47.870;19.006;2024-03-06T00:28:27;20.67;;;10.68;;
41572;SDS011;27286;47.870;19.006;2024-03-06T00:30:53;19.40;;;10.95;;
41572;SDS011;27286;47.870;19.006;2024-03-06T00:33:18;20.33;;;11.50;;
41572;SDS011;27286;47.870;19.006;2024-03-06T00:35:44;21.10;;;11.52;;
41572;SDS011;27286;47.870;19.006;2024-03-06T00:38:09;22.48;;;11.38;;
41572;SDS011;27286;47.870;19.006;2024-03-06T00:40:34;21.70;;;12.52;;
41572;SDS011;27286;47.870;19.006;2024-03-06T00:43:00;18.77;;;11.48;;
41572;SDS011;27286;47.870;19.006;2024-03-06T00:45:25;24.02;;;13.40;;
41572;SDS011;27286;47.870;19.006;2024-03-06T00:47:51;24.27;;;12.80;;
41572;SDS011;27286;47.870;19.006;2024-03-06T00:50:16;27.05;;;13.10;;
41572;SDS011;27286;47.870;19.006;2024-03-06T00:52:43;30.33;;;18.48;;
41572;SDS011;27286;47.870;19.006;2024-03-06T00:55:09;26.33;;;15.40;;
41572;SDS011;27286;47.870;19.006;2024-03-06T00:57:35;24.98;;;13.55;;
41572;SDS011;27286;47.870;19.006;2024-03-06T01:00:01;19.42;;;11.95;;
41572;SDS011;27286;47.870;19.006;2024-03-06T01:02:31;18.17;;;9.60;;
41572;SDS011;27286;47.870;19.006;2024-03-06T01:04:56;20.35;;;11.02;;
41572;SDS011;27286;47.870;19.006;2024-03-06T01:07:21;19.08;;;9.45;;
41572;SDS011;27286;47.870;19.006;2024-03-06T01:09:47;19.20;;;10.30;;
41572;SDS011;27286;47.870;19.006;2024-03-06T01:12:12;18.55;;;8.88;;
41572;SDS011;27286;47.870;19.006;2024-03-06T01:14:38;12.02;;;8.20;;
41572;SDS011;27286;47.870;19.006;2024-03-06T01:17:03;11.63;;;7.95;;
41572;SDS011;27286;47.870;19.006;2024-03-06T01:19:28;14.77;;;7.45;;
41572;SDS011;27286;47.870;19.006;2024-03-06T01:21:54;15.73;;;6.57;;
41572;SDS011;27286;47.870;19.006;2024-03-06T01:24:19;13.20;;;7.05;;
41572;SDS011;27286;47.870;19.006;2024-03-06T01:26:45;11.95;;;7.22;;
41572;SDS011;27286;47.870;19.006;2024-03-06T01:29:10;9.85;;;5.80;;
41572;SDS011;27286;47.870;19.006;2024-03-06T01:31:35;12.70;;;7.47;;
41572;SDS011;27286;47.870;19.006;2024-03-06T01:34:01;15.40;;;7.30;;
41572;SDS011;27286;47.870;19.006;2024-03-06T01:36:26;15.68;;;7.05;;
41572;SDS011;27286;47.870;19.006;2024-03-06T01:38:51;10.13;;;6.18;;
41572;SDS011;27286;47.870;19.006;2024-03-06T01:41:17;12.38;;;7.07;;
41572;SDS011;27286;47.870;19.006;2024-03-06T01:43:43;12.02;;;7.38;;
41572;SDS011;27286;47.870;19.006;2024-03-06T01:46:09;13.23;;;6.65;;
41572;SDS011;27286;47.870;19.006;2024-03-06T01:48:34;12.15;;;7.13;;
41572;SDS011;27286;47.870;19.006;2024-03-06T01:51:01;14.63;;;8.40;;
41572;SDS011;27286;47.870;19.006;2024-03-06T01:53:28;14.02;;;8.60;;
41572;SDS011;27286;47.870;19.006;2024-03-06T01:55:56;16.95;;;8.68;;
41572;SDS011;27286;47.870;19.006;2024-03-06T01:58:23;19.25;;;10.00;;
41572;SDS011;27286;47.870;19.006;2024-03-06T02:00:49;16.67;;;10.20;;
41572;SDS011;27286;47.870;19.006;2024-03-06T02:03:15;22.50;;;12.52;;
41572;SDS011;27286;47.870;19.006;2024-03-06T02:05:41;21.45;;;10.57;;
41572;SDS011;27286;47.870;19.006;2024-03-06T02:08:08;22.55;;;11.93;;
41572;SDS011;27286;47.870;19.006;2024-03-06T02:10:33;20.27;;;8.75;;
41572;SDS011;27286;47.870;19.006;2024-03-06T02:12:59;17.63;;;9.15;;
41572;SDS011;27286;47.870;19.006;2024-03-06T02:15:25;11.98;;;7.55;;
41572;SDS011;27286;47.870;19.006;2024-03-06T02:17:50;16.52;;;8.18;;
41572;SDS011;27286;47.870;19.006;2024-03-06T02:20:20;14.43;;;7.95;;
41572;SDS011;27286;47.870;19.006;2024-03-06T02:22:47;11.90;;;6.57;;
41572;SDS011;27286;47.870;19.006;2024-03-06T02:25:12;12.55;;;5.78;;
41572;SDS011;27286;47.870;19.006;2024-03-06T02:27:40;7.88;;;4.10;;
41572;SDS011;27286;47.870;19.006;2024-03-06T02:30:05;10.93;;;5.40;;
41572;SDS011;27286;47.870;19.006;2024-03-06T02:32:31;10.52;;;5.25;;
41572;SDS011;27286;47.870;19.006;2024-03-06T02:34:57;9.95;;;6.15;;
41572;SDS011;27286;47.870;19.006;2024-03-06T02:37:22;9.65;;;5.43;;
41572;SDS011;27286;47.870;19.006;2024-03-06T02:39:49;14.30;;;5.93;;
41572;SDS011;27286;47.870;19.006;2024-03-06T02:42:14;11.07;;;6.53;;
41572;SDS011;27286;47.870;19.006;2024-03-06T02:44:41;9.98;;;6.43;;
41572;SDS011;27286;47.870;19.006;2024-03-06T02:47:06;14.73;;;6.45;;
41572;SDS011;27286;47.870;19.006;2024-03-06T02:49:31;9.18;;;5.00;;
41572;SDS011;27286;47.870;19.006;2024-03-06T02:51:57;10.13;;;5.47;;
41572;SDS011;27286;47.870;19.006;2024-03-06T02:54:22;8.00;;;4.15;;
41572;SDS011;27286;47.870;19.006;2024-03-06T02:56:50;9.43;;;4.97;;
41572;SDS011;27286;47.870;19.006;2024-03-06T02:59:17;9.05;;;5.40;;
41572;SDS011;27286;47.870;19.006;2024-03-06T03:01:42;8.60;;;4.38;;
41572;SDS011;27286;47.870;19.006;2024-03-06T03:04:09;8.68;;;4.18;;
41572;SDS011;27286;47.870;19.006;2024-03-06T03:06:35;6.35;;;4.32;;
41572;SDS011;27286;47.870;19.006;2024-03-06T03:09:01;11.02;;;4.95;;
41572;SDS011;27286;47.870;19.006;2024-03-06T03:11:28;10.82;;;4.97;;
41572;SDS011;27286;47.870;19.006;2024-03-06T03:13:54;8.30;;;5.10;;
41572;SDS011;27286;47.870;19.006;2024-03-06T03:16:20;7.93;;;4.47;;
41572;SDS011;27286;47.870;19.006;2024-03-06T03:18:45;7.65;;;3.95;;
41572;SDS011;27286;47.870;19.006;2024-03-06T03:21:11;8.10;;;4.63;;
41572;SDS011;27286;47.870;19.006;2024-03-06T03:23:38;7.75;;;4.00;;
41572;SDS011;27286;47.870;19.006;2024-03-06T03:26:04;7.22;;;4.53;;
41572;SDS011;27286;47.870;19.006;2024-03-06T03:28:30;7.70;;;4.25;;
41572;SDS011;27286;47.870;19.006;2024-03-06T03:30:56;9.40;;;5.68;;
41572;SDS011;27286;47.870;19.006;2024-03-06T03:33:21;13.20;;;5.60;;
41572;SDS011;27286;47.870;19.006;2024-03-06T03:35:47;8.30;;;5.00;;
41572;SDS011;27286;47.870;19.006;2024-03-06T03:38:13;14.30;;;5.07;;
41572;SDS011;27286;47.870;19.006;2024-03-06T03:40:38;8.45;;;5.32;;
41572;SDS011;27286;47.870;19.006;2024-03-06T03:43:04;11.38;;;5.38;;
41572;SDS011;27286;47.870;19.006;2024-03-06T03:45:32;12.02;;;5.68;;
41572;SDS011;27286;47.870;19.006;2024-03-06T03:47:59;9.75;;;5.72;;
41572;SDS011;27286;47.870;19.006;2024-03-06T03:50:25;9.82;;;6.25;;
41572;SDS011;27286;47.870;19.006;2024-03-06T03:52:51;12.38;;;5.88;;
41572;SDS011;27286;47.870;19.006;2024-03-06T03:55:16;12.77;;;7.22;;
41572;SDS011;27286;47.870;19.006;2024-03-06T03:57:42;12.93;;;7.40;;
41572;SDS011;27286;47.870;19.006;2024-03-06T04:00:07;12.52;;;6.22;;
41572;SDS011;27286;47.870;19.006;2024-03-06T04:02:36;11.52;;;6.40;;
41572;SDS011;27286;47.870;19.006;2024-03-06T04:05:02;11.25;;;6.10;;
41572;SDS011;27286;47.870;19.006;2024-03-06T04:07:27;10.10;;;5.68;;
41572;SDS011;27286;47.870;19.006;2024-03-06T04:09:53;10.75;;;6.63;;
41572;SDS011;27286;47.870;19.006;2024-03-06T04:12:18;9.32;;;5.60;;
41572;SDS011;27286;47.870;19.006;2024-03-06T04:14:44;12.02;;;5.47;;
41572;SDS011;27286;47.870;19.006;2024-03-06T04:17:10;6.97;;;4.28;;
41572;SDS011;27286;47.870;19.006;2024-03-06T04:19:35;8.10;;;4.65;;
41572;SDS011;27286;47.870;19.006;2024-03-06T04:22:01;10.18;;;4.47;;
41572;SDS011;27286;47.870;19.006;2024-03-06T04:24:27;10.55;;;6.00;;
41572;SDS011;27286;47.870;19.006;2024-03-06T04:26:54;10.27;;;5.40;;
41572;SDS011;27286;47.870;19.006;2024-03-06T04:29:19;8.45;;;5.70;;
41572;SDS011;27286;47.870;19.006;2024-03-06T04:31:44;8.90;;;5.10;;
41572;SDS011;27286;47.870;19.006;2024-03-06T04:34:10;13.70;;;7.60;;
41572;SDS011;27286;47.870;19.006;2024-03-06T04:36:35;11.02;;;5.95;;
41572;SDS011;27286;47.870;19.006;2024-03-06T04:39:01;12.60;;;5.68;;
41572;SDS011;27286;47.870;19.006;2024-03-06T04:41:30;9.98;;;5.47;;
41572;SDS011;27286;47.870;19.006;2024-03-06T04:43:55;11.68;;;6.85;;
41572;SDS011;27286;47.870;19.006;2024-03-06T04:46:23;17.77;;;6.75;;
41572;SDS011;27286;47.870;19.006;2024-03-06T04:48:48;11.98;;;7.40;;
41572;SDS011;27286;47.870;19.006;2024-03-06T04:51:14;16.27;;;9.50;;
41572;SDS011;27286;47.870;19.006;2024-03-06T04:53:40;11.32;;;6.32;;
41572;SDS011;27286;47.870;19.006;2024-03-06T04:56:07;11.48;;;7.25;;
41572;SDS011;27286;47.870;19.006;2024-03-06T04:58:32;7.55;;;4.72;;
41572;SDS011;27286;47.870;19.006;2024-03-06T05:00:58;8.00;;;4.38;;
41572;SDS011;27286;47.870;19.006;2024-03-06T05:03:23;8.20;;;4.55;;
41572;SDS011;27286;47.870;19.006;2024-03-06T05:05:48;8.38;;;4.20;;
41572;SDS011;27286;47.870;19.006;2024-03-06T05:08:14;13.05;;;4.82;;
41572;SDS011;27286;47.870;19.006;2024-03-06T05:10:39;8.23;;;4.28;;
41572;SDS011;27286;47.870;19.006;2024-03-06T05:13:05;6.90;;;3.88;;
41572;SDS011;27286;47.870;19.006;2024-03-06T05:15:30;8.07;;;4.57;;
41572;SDS011;27286;47.870;19.006;2024-03-06T05:17:56;10.43;;;5.05;;
41572;SDS011;27286;47.870;19.006;2024-03-06T05:20:21;8.63;;;4.82;;
41572;SDS011;27286;47.870;19.006;2024-03-06T05:22:46;9.60;;;5.20;;
41572;SDS011;27286;47.870;19.006;2024-03-06T05:25:12;9.05;;;5.95;;
41572;SDS011;27286;47.870;19.006;2024-03-06T05:27:37;10.65;;;6.45;;
41572;SDS011;27286;47.870;19.006;2024-03-06T05:30:03;10.70;;;7.15;;
41572;SDS011;27286;47.870;19.006;2024-03-06T05:32:30;10.55;;;5.55;;
41572;SDS011;27286;47.870;19.006;2024-03-06T05:34:55;14.85;;;5.72;;
41572;SDS011;27286;47.870;19.006;2024-03-06T05:37:23;8.73;;;4.95;;
41572;SDS011;27286;47.870;19.006;2024-03-06T05:39:48;8.70;;;5.13;;
41572;SDS011;27286;47.870;19.006;2024-03-06T05:42:13;11.23;;;4.55;;
41572;SDS011;27286;47.870;19.006;2024-03-06T05:44:39;11.93;;;4.55;;
41572;SDS011;27286;47.870;19.006;2024-03-06T05:47:04;9.10;;;4.63;;
41572;SDS011;27286;47.870;19.006;2024-03-06T05:49:31;7.63;;;4.15;;
41572;SDS011;27286;47.870;19.006;2024-03-06T05:51:57;7.40;;;4.45;;
41572;SDS011;27286;47.870;19.006;2024-03-06T05:54:23;8.85;;;4.60;;
41572;SDS011;27286;47.870;19.006;2024-03-06T05:56:49;8.35;;;4.82;;
41572;SDS011;27286;47.870;19.006;2024-03-06T05:59:16;7.80;;;4.10;;
41572;SDS011;27286;47.870;19.006;2024-03-06T06:01:42;8.27;;;4.00;;
41572;SDS011;27286;47.870;19.006;2024-03-06T06:04:08;16.75;;;6.15;;
41572;SDS011;27286;47.870;19.006;2024-03-06T06:06:34;25.83;;;12.82;;
41572;SDS011;27286;47.870;19.006;2024-03-06T06:09:00;43.38;;;21.90;;
41572;SDS011;27286;47.870;19.006;2024-03-06T06:11:25;42.72;;;21.17;;
41572;SDS011;27286;47.870;19.006;2024-03-06T06:13:51;25.27;;;12.90;;
41572;SDS011;27286;47.870;19.006;2024-03-06T06:16:17;15.23;;;9.02;;
41572;SDS011;27286;47.870;19.006;2024-03-06T06:18:42;13.95;;;7.18;;
41572;SDS011;27286;47.870;19.006;2024-03-06T06:21:08;10.50;;;5.45;;
41572;SDS011;27286;47.870;19.006;2024-03-06T06:23:34;11.15;;;5.40;;
41572;SDS011;27286;47.870;19.006;2024-03-06T06:26:00;8.18;;;4.00;;
41572;SDS011;27286;47.870;19.006;2024-03-06T06:28:25;13.18;;;5.72;;
41572;SDS011;27286;47.870;19.006;2024-03-06T06:30:51;9.35;;;5.50;;
41572;SDS011;27286;47.870;19.006;2024-03-06T06:33:17;8.75;;;4.43;;
41572;SDS011;27286;47.870;19.006;2024-03-06T06:35:44;8.88;;;4.55;;
41572;SDS011;27286;47.870;19.006;2024-03-06T06:38:09;7.53;;;4.53;;
41572;SDS011;27286;47.870;19.006;2024-03-06T06:40:35;6.32;;;4.35;;
41572;SDS011;27286;47.870;19.006;2024-03-06T06:43:01;7.97;;;4.03;;
41572;SDS011;27286;47.870;19.006;2024-03-06T06:45:26;8.15;;;4.78;;
41572;SDS011;27286;47.870;19.006;2024-03-06T06:47:52;7.80;;;4.95;;
41572;SDS011;27286;47.870;19.006;2024-03-06T06:50:18;8.18;;;4.75;;
41572;SDS011;27286;47.870;19.006;2024-03-06T06:52:46;5.90;;;4.07;;
41572;SDS011;27286;47.870;19.006;2024-03-06T06:55:12;7.70;;;4.35;;
41572;SDS011;27286;47.870;19.006;2024-03-06T06:57:38;21.98;;;11.07;;
41572;SDS011;27286;47.870;19.006;2024-03-06T07:00:04;32.60;;;18.55;;
41572;SDS011;27286;47.870;19.006;2024-03-06T07:02:42;52.95;;;28.25;;
41572;SDS011;27286;47.870;19.006;2024-03-06T07:05:08;75.70;;;41.20;;
41572;SDS011;27286;47.870;19.006;2024-03-06T07:07:34;114.22;;;60.20;;
41572;SDS011;27286;47.870;19.006;2024-03-06T07:10:04;73.82;;;43.53;;
41572;SDS011;27286;47.870;19.006;2024-03-06T07:12:30;51.25;;;32.42;;
41572;SDS011;27286;47.870;19.006;2024-03-06T07:14:56;48.75;;;33.25;;
41572;SDS011;27286;47.870;19.006;2024-03-06T07:17:22;59.30;;;38.92;;
41572;SDS011;27286;47.870;19.006;2024-03-06T07:19:48;51.55;;;29.42;;
41572;SDS011;27286;47.870;19.006;2024-03-06T07:22:13;49.50;;;26.85;;
41572;SDS011;27286;47.870;19.006;2024-03-06T07:24:39;35.63;;;22.25;;
41572;SDS011;27286;47.870;19.006;2024-03-06T07:27:05;32.60;;;20.45;;
41572;SDS011;27286;47.870;19.006;2024-03-06T07:29:30;28.05;;;16.77;;
41572;SDS011;27286;47.870;19.006;2024-03-06T07:31:56;35.05;;;18.85;;
41572;SDS011;27286;47.870;19.006;2024-03-06T07:34:21;30.00;;;16.17;;
41572;SDS011;27286;47.870;19.006;2024-03-06T07:36:47;25.77;;;14.20;;
41572;SDS011;27286;47.870;19.006;2024-03-06T07:39:16;31.15;;;14.25;;
41572;SDS011;27286;47.870;19.006;2024-03-06T07:41:42;21.05;;;12.93;;
41572;SDS011;27286;47.870;19.006;2024-03-06T07:44:08;24.58;;;16.48;;
41572;SDS011;27286;47.870;19.006;2024-03-06T07:46:34;29.92;;;17.02;;
41572;SDS011;27286;47.870;19.006;2024-03-06T07:49:00;33.38;;;16.10;;
41572;SDS011;27286;47.870;19.006;2024-03-06T07:51:25;34.38;;;17.27;;
41572;SDS011;27286;47.870;19.006;2024-03-06T07:53:51;41.72;;;19.45;;
41572;SDS011;27286;47.870;19.006;2024-03-06T07:56:17;31.13;;;17.67;;
41572;SDS011;27286;47.870;19.006;2024-03-06T07:58:43;28.20;;;16.27;;
41572;SDS011;27286;47.870;19.006;2024-03-06T08:01:08;25.30;;;14.88;;
41572;SDS011;27286;47.870;19.006;2024-03-06T08:03:34;24.13;;;15.25;;
41572;SDS011;27286;47.870;19.006;2024-03-06T08:05:59;37.83;;;21.02;;
41572;SDS011;27286;47.870;19.006;2024-03-06T08:08:25;18.30;;;11.15;;
41572;SDS011;27286;47.870;19.006;2024-03-06T08:10:50;20.70;;;12.70;;
41572;SDS011;27286;47.870;19.006;2024-03-06T08:13:16;13.20;;;7.95;;
41572;SDS011;27286;47.870;19.006;2024-03-06T08:15:44;10.85;;;7.43;;
41572;SDS011;27286;47.870;19.006;2024-03-06T08:18:09;11.55;;;7.40;;
41572;SDS011;27286;47.870;19.006;2024-03-06T08:20:36;9.80;;;6.78;;
41572;SDS011;27286;47.870;19.006;2024-03-06T08:23:02;19.05;;;11.93;;
41572;SDS011;27286;47.870;19.006;2024-03-06T08:25:27;6.20;;;4.38;;
41572;SDS011;27286;47.870;19.006;2024-03-06T08:27:53;9.07;;;4.13;;
41572;SDS011;27286;47.870;19.006;2024-03-06T08:30:18;6.18;;;3.92;;
41572;SDS011;27286;47.870;19.006;2024-03-06T08:32:44;5.63;;;4.03;;
41572;SDS011;27286;47.870;19.006;2024-03-06T08:35:12;6.40;;;3.58;;
41572;SDS011;27286;47.870;19.006;2024-03-06T08:37:39;7.28;;;4.47;;
41572;SDS011;27286;47.870;19.006;2024-03-06T08:40:05;6.65;;;4.22;;
41572;SDS011;27286;47.870;19.006;2024-03-06T08:42:42;6.03;;;3.30;;
41572;SDS011;27286;47.870;19.006;2024-03-06T08:45:08;10.45;;;3.30;;
41572;SDS011;27286;47.870;19.006;2024-03-06T08:47:34;5.80;;;3.85;;
41572;SDS011;27286;47.870;19.006;2024-03-06T08:50:00;6.45;;;3.75;;
41572;SDS011;27286;47.870;19.006;2024-03-06T08:52:27;5.80;;;3.65;;
41572;SDS011;27286;47.870;19.006;2024-03-06T08:54:52;6.28;;;4.18;;
41572;SDS011;27286;47.870;19.006;2024-03-06T08:57:18;5.00;;;3.67;;
41572;SDS011;27286;47.870;19.006;2024-03-06T08:59:46;7.78;;;3.63;;
41572;SDS011;27286;47.870;19.006;2024-03-06T09:02:18;5.95;;;3.40;;
41572;SDS011;27286;47.870;19.006;2024-03-06T09:04:47;5.78;;;3.25;;
41572;SDS011;27286;47.870;19.006;2024-03-06T09:07:13;4.50;;;3.70;;
41572;SDS011;27286;47.870;19.006;2024-03-06T09:09:39;4.60;;;3.17;;
41572;SDS011;27286;47.870;19.006;2024-03-06T09:12:05;8.20;;;2.78;;
41572;SDS011;27286;47.870;19.006;2024-03-06T09:14:32;5.25;;;2.92;;
41572;SDS011;27286;47.870;19.006;2024-03-06T09:16:58;8.18;;;3.28;;
41572;SDS011;27286;47.870;19.006;2024-03-06T09:19:24;4.85;;;2.38;;
41572;SDS011;27286;47.870;19.006;2024-03-06T09:21:49;4.55;;;3.30;;
41572;SDS011;27286;47.870;19.006;2024-03-06T09:24:15;4.43;;;3.40;;
41572;SDS011;27286;47.870;19.006;2024-03-06T09:26:40;5.32;;;2.97;;
41572;SDS011;27286;47.870;19.006;2024-03-06T09:29:06;5.68;;;3.60;;
41572;SDS011;27286;47.870;19.006;2024-03-06T09:31:31;7.03;;;3.33;;
41572;SDS011;27286;47.870;19.006;2024-03-06T09:33:57;4.85;;;2.90;;
41572;SDS011;27286;47.870;19.006;2024-03-06T09:36:23;4.65;;;2.92;;
41572;SDS011;27286;47.870;19.006;2024-03-06T09:38:48;9.18;;;3.00;;
41572;SDS011;27286;47.870;19.006;2024-03-06T09:41:14;5.93;;;3.05;;
41572;SDS011;27286;47.870;19.006;2024-03-06T09:43:39;5.22;;;3.20;;
41572;SDS011;27286;47.870;19.006;2024-03-06T09:46:08;7.03;;;3.33;;
41572;SDS011;27286;47.870;19.006;2024-03-06T09:48:33;4.47;;;3.38;;
41572;SDS011;27286;47.870;19.006;2024-03-06T09:51:02;3.70;;;2.67;;
41572;SDS011;27286;47.870;19.006;2024-03-06T09:53:28;4.95;;;2.35;;
41572;SDS011;27286;47.870;19.006;2024-03-06T09:55:54;4.35;;;2.55;;
41572;SDS011;27286;47.870;19.006;2024-03-06T09:58:22;5.65;;;2.95;;
41572;SDS011;27286;47.870;19.006;2024-03-06T10:00:48;6.25;;;3.50;;
41572;SDS011;27286;47.870;19.006;2024-03-06T10:03:15;5.35;;;3.00;;
41572;SDS011;27286;47.870;19.006;2024-03-06T10:05:40;5.07;;;3.17;;
41572;SDS011;27286;47.870;19.006;2024-03-06T10:08:08;5.40;;;2.80;;
41572;SDS011;27286;47.870;19.006;2024-03-06T10:10:34;12.05;;;4.95;;
41572;SDS011;27286;47.870;19.006;2024-03-06T10:13:01;9.63;;;3.33;;
41572;SDS011;27286;47.870;19.006;2024-03-06T10:15:27;5.68;;;2.63;;
41572;SDS011;27286;47.870;19.006;2024-03-06T10:20:37;4.82;;;3.17;;
41572;SDS011;27286;47.870;19.006;2024-03-06T10:23:03;5.07;;;2.50;;
41572;SDS011;27286;47.870;19.006;2024-03-06T10:25:29;4.65;;;2.15;;
41572;SDS011;27286;47.870;19.006;2024-03-06T10:30:30;4.22;;;2.15;;
41572;SDS011;27286;47.870;19.006;2024-03-06T10:32:56;3.70;;;1.80;;
41572;SDS011;27286;47.870;19.006;2024-03-06T10:35:21;5.57;;;2.72;;
41572;SDS011;27286;47.870;19.006;2024-03-06T10:37:47;4.30;;;2.33;;
41572;SDS011;27286;47.870;19.006;2024-03-06T10:40:15;4.65;;;2.17;;
41572;SDS011;27286;47.870;19.006;2024-03-06T10:42:42;5.57;;;3.00;;
41572;SDS011;27286;47.870;19.006;2024-03-06T10:45:09;4.97;;;2.65;;
41572;SDS011;27286;47.870;19.006;2024-03-06T10:47:39;5.45;;;2.63;;
41572;SDS011;27286;47.870;19.006;2024-03-06T10:50:06;4.25;;;2.88;;
41572;SDS011;27286;47.870;19.006;2024-03-06T10:52:35;5.80;;;2.70;;
41572;SDS011;27286;47.870;19.006;2024-03-06T10:55:03;4.95;;;2.75;;
41572;SDS011;27286;47.870;19.006;2024-03-06T10:57:29;4.07;;;2.20;;
41572;SDS011;27286;47.870;19.006;2024-03-06T10:59:56;5.20;;;2.72;;
41572;SDS011;27286;47.870;19.006;2024-03-06T11:02:25;4.18;;;2.50;;
41572;SDS011;27286;47.870;19.006;2024-03-06T11:04:52;4.63;;;2.45;;
41572;SDS011;27286;47.870;19.006;2024-03-06T11:07:18;5.50;;;2.47;;
41572;SDS011;27286;47.870;19.006;2024-03-06T11:09:44;4.18;;;2.05;;
41572;SDS011;27286;47.870;19.006;2024-03-06T11:12:13;6.85;;;2.70;;
41572;SDS011;27286;47.870;19.006;2024-03-06T11:14:57;4.63;;;2.17;;
41572;SDS011;27286;47.870;19.006;2024-03-06T11:17:25;4.15;;;2.97;;
41572;SDS011;27286;47.870;19.006;2024-03-06T11:28:18;7.28;;;4.00;;
41572;SDS011;27286;47.870;19.006;2024-03-06T11:30:45;5.13;;;3.53;;
41572;SDS011;27286;47.870;19.006;2024-03-06T11:33:19;7.82;;;4.00;;
41572;SDS011;27286;47.870;19.006;2024-03-06T11:41:28;5.40;;;3.00;;
41572;SDS011;27286;47.870;19.006;2024-03-06T11:43:55;6.82;;;3.33;;
41572;SDS011;27286;47.870;19.006;2024-03-06T11:49:18;9.32;;;4.22;;
41572;SDS011;27286;47.870;19.006;2024-03-06T11:51:48;8.43;;;5.20;;
41572;SDS011;27286;47.870;19.006;2024-03-06T11:54:14;7.50;;;5.25;;
41572;SDS011;27286;47.870;19.006;2024-03-06T11:56:40;6.00;;;4.95;;
41572;SDS011;27286;47.870;19.006;2024-03-06T11:59:06;6.65;;;5.75;;
41572;SDS011;27286;47.870;19.006;2024-03-06T12:01:32;6.00;;;4.53;;
41572;SDS011;27286;47.870;19.006;2024-03-06T12:03:58;9.68;;;6.28;;
41572;SDS011;27286;47.870;19.006;2024-03-06T12:06:26;9.05;;;5.95;;
41572;SDS011;27286;47.870;19.006;2024-03-06T12:08:53;10.90;;;7.38;;
41572;SDS011;27286;47.870;19.006;2024-03-06T12:11:18;10.80;;;6.63;;
41572;SDS011;27286;47.870;19.006;2024-03-06T12:13:45;6.03;;;4.20;;
41572;SDS011;27286;47.870;19.006;2024-03-06T12:16:13;5.82;;;4.70;;
41572;SDS011;27286;47.870;19.006;2024-03-06T12:18:39;8.57;;;6.05;;
41572;SDS011;27286;47.870;19.006;2024-03-06T12:21:05;12.13;;;7.00;;
41572;SDS011;27286;47.870;19.006;2024-03-06T12:23:30;10.07;;;5.88;;
41572;SDS011;27286;47.870;19.006;2024-03-06T12:26:29;12.32;;;7.40;;
41572;SDS011;27286;47.870;19.006;2024-03-06T12:28:47;9.60;;;5.53;;
41572;SDS011;27286;47.870;19.006;2024-03-06T12:31:13;20.85;;;6.50;;
41572;SDS011;27286;47.870;19.006;2024-03-06T12:33:38;12.57;;;6.32;;
41572;SDS011;27286;47.870;19.006;2024-03-06T12:36:07;9.23;;;5.07;;
41572;SDS011;27286;47.870;19.006;2024-03-06T12:38:35;9.82;;;5.95;;
41572;SDS011;27286;47.870;19.006;2024-03-06T12:41:01;10.60;;;5.22;;
41572;SDS011;27286;47.870;19.006;2024-03-06T12:43:27;9.60;;;4.55;;
41572;SDS011;27286;47.870;19.006;2024-03-06T12:45:54;6.75;;;3.40;;
41572;SDS011;27286;47.870;19.006;2024-03-06T12:48:23;6.50;;;3.63;;
41572;SDS011;27286;47.870;19.006;2024-03-06T12:50:50;4.55;;;2.88;;
41572;SDS011;27286;47.870;19.006;2024-03-06T12:53:20;5.10;;;2.78;;
41572;SDS011;27286;47.870;19.006;2024-03-06T12:55:46;6.35;;;3.80;;
41572;SDS011;27286;47.870;19.006;2024-03-06T12:58:12;6.35;;;3.33;;
41572;SDS011;27286;47.870;19.006;2024-03-06T13:00:38;8.27;;;3.75;;
41572;SDS011;27286;47.870;19.006;2024-03-06T13:03:04;9.20;;;5.20;;
41572;SDS011;27286;47.870;19.006;2024-03-06T13:05:30;6.95;;;4.57;;
41572;SDS011;27286;47.870;19.006;2024-03-06T13:07:56;11.52;;;4.30;;
41572;SDS011;27286;47.870;19.006;2024-03-06T13:10:22;6.35;;;4.28;;
41572;SDS011;27286;47.870;19.006;2024-03-06T13:12:47;11.25;;;7.15;;
41572;SDS011;27286;47.870;19.006;2024-03-06T13:15:13;12.23;;;7.80;;
41572;SDS011;27286;47.870;19.006;2024-03-06T13:17:38;11.77;;;8.68;;
41572;SDS011;27286;47.870;19.006;2024-03-06T13:20:05;12.13;;;8.13;;
41572;SDS011;27286;47.870;19.006;2024-03-06T13:22:34;18.00;;;9.63;;
41572;SDS011;27286;47.870;19.006;2024-03-06T13:25:00;25.35;;;11.63;;
41572;SDS011;27286;47.870;19.006;2024-03-06T13:27:26;20.27;;;11.90;;
41572;SDS011;27286;47.870;19.006;2024-03-06T13:29:52;11.75;;;8.15;;
41572;SDS011;27286;47.870;19.006;2024-03-06T13:32:17;15.57;;;9.20;;
41572;SDS011;27286;47.870;19.006;2024-03-06T13:34:43;15.23;;;8.65;;
41572;SDS011;27286;47.870;19.006;2024-03-06T13:37:09;20.92;;;10.43;;
41572;SDS011;27286;47.870;19.006;2024-03-06T13:39:35;19.90;;;10.55;;
41572;SDS011;27286;47.870;19.006;2024-03-06T13:42:01;19.90;;;8.80;;
41572;SDS011;27286;47.870;19.006;2024-03-06T13:44:26;13.30;;;6.78;;
41572;SDS011;27286;47.870;19.006;2024-03-06T13:46:52;15.27;;;7.88;;
41572;SDS011;27286;47.870;19.006;2024-03-06T13:52:05;11.65;;;8.13;;
41572;SDS011;27286;47.870;19.006;2024-03-06T13:54:32;12.10;;;8.25;;
41572;SDS011;27286;47.870;19.006;2024-03-06T13:56:58;15.70;;;7.70;;
41572;SDS011;27286;47.870;19.006;2024-03-06T13:59:35;12.60;;;7.88;;
41572;SDS011;27286;47.870;19.006;2024-03-06T14:02:02;16.85;;;8.85;;
41572;SDS011;27286;47.870;19.006;2024-03-06T14:04:28;15.65;;;9.35;;
41572;SDS011;27286;47.870;19.006;2024-03-06T14:06:54;11.02;;;7.45;;
41572;SDS011;27286;47.870;19.006;2024-03-06T14:09:22;10.73;;;7.60;;
41572;SDS011;27286;47.870;19.006;2024-03-06T14:11:49;11.95;;;7.05;;
41572;SDS011;27286;47.870;19.006;2024-03-06T14:14:15;11.98;;;7.18;;
41572;SDS011;27286;47.870;19.006;2024-03-06T14:16:41;13.00;;;6.55;;
41572;SDS011;27286;47.870;19.006;2024-03-06T14:19:07;10.43;;;7.30;;
41572;SDS011;27286;47.870;19.006;2024-03-06T14:21:33;11.32;;;7.18;;
41572;SDS011;27286;47.870;19.006;2024-03-06T14:24:00;7.97;;;5.88;;
41572;SDS011;27286;47.870;19.006;2024-03-06T14:26:28;13.13;;;6.10;;
41572;SDS011;27286;47.870;19.006;2024-03-06T14:28:58;11.68;;;6.15;;
41572;SDS011;27286;47.870;19.006;2024-03-06T14:31:23;13.90;;;7.82;;
41572;SDS011;27286;47.870;19.006;2024-03-06T14:33:49;12.70;;;7.55;;
41572;SDS011;27286;47.870;19.006;2024-03-06T14:36:15;16.33;;;7.35;;
41572;SDS011;27286;47.870;19.006;2024-03-06T14:38:41;14.15;;;6.90;;
41572;SDS011;27286;47.870;19.006;2024-03-06T14:41:09;11.55;;;5.95;;
41572;SDS011;27286;47.870;19.006;2024-03-06T14:43:34;11.48;;;5.20;;
41572;SDS011;27286;47.870;19.006;2024-03-06T14:46:03;17.42;;;7.57;;